sensor_id;sensor_type;location;lat;lon;timestamp;P1;durP1;ratioP1;P2;durP2;ratioP2
72087;SDS011;59961;50.232;8.616;2023-11-21T00:00:29;9.75;;;2.50;;
72087;SDS011;59961;50.232;8.616;2023-11-21T00:02:55;7.60;;;2.65;;
72087;SDS011;59961;50.232;8.616;2023-11-21T00:05:20;7.20;;;2.50;;
72087;SDS011;59961;50.232;8.616;2023-11-21T00:07:48;6.03;;;2.63;;
72087;SDS011;59961;50.232;8.616;2023-11-21T00:10:13;6.47;;;2.80;;
72087;SDS011;59961;50.232;8.616;2023-11-21T00:12:39;6.18;;;2.70;;
72087;SDS011;59961;50.232;8.616;2023-11-21T00:15:07;5.30;;;2.50;;
72087;SDS011;59961;50.232;8.616;2023-11-21T00:17:36;7.60;;;3.20;;
72087;SDS011;59961;50.232;8.616;2023-11-21T00:20:01;7.00;;;3.10;;
72087;SDS011;59961;50.232;8.616;2023-11-21T00:22:26;8.20;;;2.70;;
72087;SDS011;59961;50.232;8.616;2023-11-21T00:24:51;7.57;;;2.80;;
72087;SDS011;59961;50.232;8.616;2023-11-21T00:27:17;7.85;;;2.65;;
72087;SDS011;59961;50.232;8.616;2023-11-21T00:29:42;11.30;;;2.80;;
72087;SDS011;59961;50.232;8.616;2023-11-21T00:32:07;7.63;;;2.73;;
72087;SDS011;59961;50.232;8.616;2023-11-21T00:34:33;7.93;;;3.03;;
72087;SDS011;59961;50.232;8.616;2023-11-21T00:36:58;6.73;;;3.20;;
72087;SDS011;59961;50.232;8.616;2023-11-21T00:39:23;6.13;;;2.73;;
72087;SDS011;59961;50.232;8.616;2023-11-21T00:41:49;5.93;;;2.90;;
72087;SDS011;59961;50.232;8.616;2023-11-21T00:44:14;9.70;;;2.90;;
72087;SDS011;59961;50.232;8.616;2023-11-21T00:46:39;7.53;;;3.10;;
72087;SDS011;59961;50.232;8.616;2023-11-21T00:49:04;6.75;;;2.72;;
72087;SDS011;59961;50.232;8.616;2023-11-21T00:51:29;9.73;;;3.40;;
72087;SDS011;59961;50.232;8.616;2023-11-21T00:53:55;11.32;;;3.38;;
72087;SDS011;59961;50.232;8.616;2023-11-21T00:56:20;7.50;;;3.10;;
72087;SDS011;59961;50.232;8.616;2023-11-21T00:58:45;6.97;;;2.90;;
72087;SDS011;59961;50.232;8.616;2023-11-21T01:01:14;7.83;;;2.87;;
72087;SDS011;59961;50.232;8.616;2023-11-21T01:03:40;8.90;;;2.90;;
72087;SDS011;59961;50.232;8.616;2023-11-21T01:06:05;8.10;;;3.17;;
72087;SDS011;59961;50.232;8.616;2023-11-21T01:08:32;8.02;;;2.70;;
72087;SDS011;59961;50.232;8.616;2023-11-21T01:10:58;7.50;;;2.97;;
72087;SDS011;59961;50.232;8.616;2023-11-21T01:13:23;9.73;;;3.17;;
72087;SDS011;59961;50.232;8.616;2023-11-21T01:15:48;6.30;;;2.80;;
72087;SDS011;59961;50.232;8.616;2023-11-21T01:18:13;8.03;;;2.97;;
72087;SDS011;59961;50.232;8.616;2023-11-21T01:20:38;7.03;;;2.75;;
72087;SDS011;59961;50.232;8.616;2023-11-21T01:23:03;10.05;;;3.10;;
72087;SDS011;59961;50.232;8.616;2023-11-21T01:25:29;7.22;;;3.50;;
72087;SDS011;59961;50.232;8.616;2023-11-21T01:27:55;6.15;;;3.13;;
72087;SDS011;59961;50.232;8.616;2023-11-21T01:30:20;6.00;;;2.77;;
72087;SDS011;59961;50.232;8.616;2023-11-21T01:32:45;9.07;;;3.03;;
72087;SDS011;59961;50.232;8.616;2023-11-21T01:35:11;6.53;;;2.93;;
72087;SDS011;59961;50.232;8.616;2023-11-21T01:37:39;7.63;;;2.67;;
72087;SDS011;59961;50.232;8.616;2023-11-21T01:40:04;7.78;;;3.40;;
72087;SDS011;59961;50.232;8.616;2023-11-21T01:42:33;5.78;;;2.70;;
72087;SDS011;59961;50.232;8.616;2023-11-21T01:44:59;10.32;;;3.38;;
72087;SDS011;59961;50.232;8.616;2023-11-21T01:47:25;6.18;;;2.88;;
72087;SDS011;59961;50.232;8.616;2023-11-21T01:49:50;7.27;;;3.27;;
72087;SDS011;59961;50.232;8.616;2023-11-21T01:52:15;7.17;;;3.47;;
72087;SDS011;59961;50.232;8.616;2023-11-21T01:54:41;7.63;;;3.50;;
72087;SDS011;59961;50.232;8.616;2023-11-21T01:57:07;8.27;;;3.20;;
72087;SDS011;59961;50.232;8.616;2023-11-21T01:59:36;8.85;;;3.33;;
72087;SDS011;59961;50.232;8.616;2023-11-21T02:02:05;6.40;;;2.97;;
72087;SDS011;59961;50.232;8.616;2023-11-21T02:04:32;9.82;;;3.35;;
72087;SDS011;59961;50.232;8.616;2023-11-21T02:06:57;6.57;;;2.97;;
72087;SDS011;59961;50.232;8.616;2023-11-21T02:09:26;8.00;;;3.50;;
72087;SDS011;59961;50.232;8.616;2023-11-21T02:11:52;8.90;;;3.55;;
72087;SDS011;59961;50.232;8.616;2023-11-21T02:14:18;7.23;;;3.60;;
72087;SDS011;59961;50.232;8.616;2023-11-21T02:16:45;6.95;;;3.30;;
72087;SDS011;59961;50.232;8.616;2023-11-21T02:19:12;8.50;;;3.33;;
72087;SDS011;59961;50.232;8.616;2023-11-21T02:21:39;9.38;;;3.58;;
72087;SDS011;59961;50.232;8.616;2023-11-21T02:24:05;7.65;;;3.38;;
72087;SDS011;59961;50.232;8.616;2023-11-21T02:26:31;8.20;;;2.90;;
72087;SDS011;59961;50.232;8.616;2023-11-21T02:28:56;9.43;;;3.20;;
72087;SDS011;59961;50.232;8.616;2023-11-21T02:31:23;11.15;;;4.03;;
72087;SDS011;59961;50.232;8.616;2023-11-21T02:33:48;8.55;;;3.60;;
72087;SDS011;59961;50.232;8.616;2023-11-21T02:36:13;7.53;;;2.97;;
72087;SDS011;59961;50.232;8.616;2023-11-21T02:38:38;7.90;;;3.07;;
72087;SDS011;59961;50.232;8.616;2023-11-21T02:41:03;7.57;;;3.47;;
72087;SDS011;59961;50.232;8.616;2023-11-21T02:43:29;10.18;;;3.45;;
72087;SDS011;59961;50.232;8.616;2023-11-21T02:45:54;10.20;;;3.90;;
72087;SDS011;59961;50.232;8.616;2023-11-21T02:48:19;11.87;;;4.13;;
72087;SDS011;59961;50.232;8.616;2023-11-21T02:50:45;9.77;;;4.03;;
72087;SDS011;59961;50.232;8.616;2023-11-21T02:53:10;9.85;;;3.25;;
72087;SDS011;59961;50.232;8.616;2023-11-21T02:55:35;7.33;;;2.87;;
72087;SDS011;59961;50.232;8.616;2023-11-21T02:58:01;7.57;;;3.45;;
72087;SDS011;59961;50.232;8.616;2023-11-21T03:00:26;7.27;;;2.93;;
72087;SDS011;59961;50.232;8.616;2023-11-21T03:02:52;6.53;;;2.88;;
72087;SDS011;59961;50.232;8.616;2023-11-21T03:05:18;7.00;;;2.50;;
72087;SDS011;59961;50.232;8.616;2023-11-21T03:07:43;6.17;;;2.60;;
72087;SDS011;59961;50.232;8.616;2023-11-21T03:10:08;7.03;;;2.75;;
72087;SDS011;59961;50.232;8.616;2023-11-21T03:12:34;7.97;;;2.83;;
72087;SDS011;59961;50.232;8.616;2023-11-21T03:14:59;7.17;;;2.90;;
72087;SDS011;59961;50.232;8.616;2023-11-21T03:17:24;6.33;;;2.67;;
72087;SDS011;59961;50.232;8.616;2023-11-21T03:19:49;6.68;;;2.70;;
72087;SDS011;59961;50.232;8.616;2023-11-21T03:22:14;8.38;;;3.03;;
72087;SDS011;59961;50.232;8.616;2023-11-21T03:24:40;5.85;;;2.65;;
72087;SDS011;59961;50.232;8.616;2023-11-21T03:27:05;6.87;;;3.07;;
72087;SDS011;59961;50.232;8.616;2023-11-21T03:29:30;7.28;;;3.05;;
72087;SDS011;59961;50.232;8.616;2023-11-21T03:31:55;6.43;;;2.73;;
72087;SDS011;59961;50.232;8.616;2023-11-21T03:34:24;5.93;;;2.20;;
72087;SDS011;59961;50.232;8.616;2023-11-21T03:36:50;5.70;;;2.20;;
72087;SDS011;59961;50.232;8.616;2023-11-21T03:39:16;5.67;;;2.47;;
72087;SDS011;59961;50.232;8.616;2023-11-21T03:41:41;5.15;;;2.70;;
72087;SDS011;59961;50.232;8.616;2023-11-21T03:44:06;5.87;;;2.20;;
72087;SDS011;59961;50.232;8.616;2023-11-21T03:46:31;6.73;;;2.00;;
72087;SDS011;59961;50.232;8.616;2023-11-21T03:48:56;4.57;;;2.08;;
72087;SDS011;59961;50.232;8.616;2023-11-21T03:51:21;5.80;;;2.37;;
72087;SDS011;59961;50.232;8.616;2023-11-21T03:53:47;4.50;;;1.90;;
72087;SDS011;59961;50.232;8.616;2023-11-21T03:56:12;3.55;;;1.67;;
72087;SDS011;59961;50.232;8.616;2023-11-21T03:58:38;4.30;;;1.73;;
72087;SDS011;59961;50.232;8.616;2023-11-21T04:01:03;3.78;;;1.70;;
72087;SDS011;59961;50.232;8.616;2023-11-21T04:03:28;5.30;;;1.87;;
72087;SDS011;59961;50.232;8.616;2023-11-21T04:05:53;5.43;;;1.93;;
72087;SDS011;59961;50.232;8.616;2023-11-21T04:08:19;4.33;;;1.80;;
72087;SDS011;59961;50.232;8.616;2023-11-21T04:10:44;4.93;;;1.60;;
72087;SDS011;59961;50.232;8.616;2023-11-21T04:13:09;3.07;;;1.50;;
72087;SDS011;59961;50.232;8.616;2023-11-21T04:15:35;3.35;;;1.50;;
72087;SDS011;59961;50.232;8.616;2023-11-21T04:18:00;4.53;;;1.80;;
72087;SDS011;59961;50.232;8.616;2023-11-21T04:20:25;5.65;;;2.20;;
72087;SDS011;59961;50.232;8.616;2023-11-21T04:22:51;6.67;;;2.10;;
72087;SDS011;59961;50.232;8.616;2023-11-21T04:25:16;7.53;;;2.80;;
72087;SDS011;59961;50.232;8.616;2023-11-21T04:27:42;6.80;;;3.00;;
72087;SDS011;59961;50.232;8.616;2023-11-21T04:30:09;8.25;;;3.40;;
72087;SDS011;59961;50.232;8.616;2023-11-21T04:32:34;8.80;;;3.03;;
72087;SDS011;59961;50.232;8.616;2023-11-21T04:35:00;8.45;;;3.85;;
72087;SDS011;59961;50.232;8.616;2023-11-21T04:37:25;9.97;;;3.40;;
72087;SDS011;59961;50.232;8.616;2023-11-21T04:39:50;9.87;;;3.57;;
72087;SDS011;59961;50.232;8.616;2023-11-21T04:42:15;9.73;;;3.53;;
72087;SDS011;59961;50.232;8.616;2023-11-21T04:44:40;8.07;;;3.33;;
72087;SDS011;59961;50.232;8.616;2023-11-21T04:47:06;8.10;;;3.27;;
72087;SDS011;59961;50.232;8.616;2023-11-21T04:49:31;9.17;;;3.13;;
72087;SDS011;59961;50.232;8.616;2023-11-21T04:51:56;8.63;;;3.53;;
72087;SDS011;59961;50.232;8.616;2023-11-21T04:54:21;8.37;;;3.60;;
72087;SDS011;59961;50.232;8.616;2023-11-21T04:56:46;8.73;;;3.72;;
72087;SDS011;59961;50.232;8.616;2023-11-21T04:59:11;8.80;;;3.50;;
72087;SDS011;59961;50.232;8.616;2023-11-21T05:01:37;8.90;;;3.33;;
72087;SDS011;59961;50.232;8.616;2023-11-21T05:04:02;9.30;;;3.70;;
72087;SDS011;59961;50.232;8.616;2023-11-21T05:06:27;10.15;;;3.80;;
72087;SDS011;59961;50.232;8.616;2023-11-21T05:08:52;9.20;;;4.20;;
72087;SDS011;59961;50.232;8.616;2023-11-21T05:11:28;9.33;;;3.67;;
72087;SDS011;59961;50.232;8.616;2023-11-21T05:13:54;8.02;;;3.80;;
72087;SDS011;59961;50.232;8.616;2023-11-21T05:16:21;8.05;;;2.95;;
72087;SDS011;59961;50.232;8.616;2023-11-21T05:18:46;6.32;;;2.70;;
72087;SDS011;59961;50.232;8.616;2023-11-21T05:21:12;4.90;;;2.07;;
72087;SDS011;59961;50.232;8.616;2023-11-21T05:23:37;6.47;;;2.30;;
72087;SDS011;59961;50.232;8.616;2023-11-21T05:26:02;4.53;;;1.70;;
72087;SDS011;59961;50.232;8.616;2023-11-21T05:28:27;6.80;;;1.63;;
72087;SDS011;59961;50.232;8.616;2023-11-21T05:30:52;4.18;;;1.65;;
72087;SDS011;59961;50.232;8.616;2023-11-21T05:33:18;2.53;;;1.10;;
72087;SDS011;59961;50.232;8.616;2023-11-21T05:35:43;4.10;;;1.13;;
72087;SDS011;59961;50.232;8.616;2023-11-21T05:38:08;2.72;;;0.90;;
72087;SDS011;59961;50.232;8.616;2023-11-21T05:40:34;1.98;;;0.75;;
72087;SDS011;59961;50.232;8.616;2023-11-21T05:42:59;1.90;;;0.70;;
72087;SDS011;59961;50.232;8.616;2023-11-21T05:45:24;2.30;;;0.60;;
72087;SDS011;59961;50.232;8.616;2023-11-21T05:47:49;1.33;;;0.70;;
72087;SDS011;59961;50.232;8.616;2023-11-21T05:50:15;1.95;;;0.55;;
72087;SDS011;59961;50.232;8.616;2023-11-21T05:52:41;1.90;;;0.40;;
72087;SDS011;59961;50.232;8.616;2023-11-21T05:55:07;0.63;;;0.47;;
72087;SDS011;59961;50.232;8.616;2023-11-21T05:57:35;1.55;;;0.65;;
72087;SDS011;59961;50.232;8.616;2023-11-21T06:00:04;1.33;;;0.53;;
72087;SDS011;59961;50.232;8.616;2023-11-21T06:02:36;1.50;;;0.60;;
72087;SDS011;59961;50.232;8.616;2023-11-21T06:05:01;2.83;;;0.60;;
72087;SDS011;59961;50.232;8.616;2023-11-21T06:07:26;2.33;;;0.73;;
72087;SDS011;59961;50.232;8.616;2023-11-21T06:09:51;1.77;;;0.82;;
72087;SDS011;59961;50.232;8.616;2023-11-21T06:12:16;1.93;;;0.60;;
72087;SDS011;59961;50.232;8.616;2023-11-21T06:14:41;1.87;;;0.77;;
72087;SDS011;59961;50.232;8.616;2023-11-21T06:17:07;2.90;;;0.90;;
72087;SDS011;59961;50.232;8.616;2023-11-21T06:19:32;3.20;;;0.90;;
72087;SDS011;59961;50.232;8.616;2023-11-21T06:21:57;1.70;;;0.63;;
72087;SDS011;59961;50.232;8.616;2023-11-21T06:24:22;2.33;;;0.70;;
72087;SDS011;59961;50.232;8.616;2023-11-21T06:26:47;4.43;;;0.90;;
72087;SDS011;59961;50.232;8.616;2023-11-21T06:29:13;1.73;;;0.60;;
72087;SDS011;59961;50.232;8.616;2023-11-21T06:31:38;1.77;;;0.77;;
72087;SDS011;59961;50.232;8.616;2023-11-21T06:34:05;1.52;;;0.70;;
72087;SDS011;59961;50.232;8.616;2023-11-21T06:36:31;2.10;;;1.00;;
72087;SDS011;59961;50.232;8.616;2023-11-21T06:38:56;2.85;;;1.15;;
72087;SDS011;59961;50.232;8.616;2023-11-21T06:41:21;4.70;;;1.30;;
72087;SDS011;59961;50.232;8.616;2023-11-21T06:43:46;2.97;;;1.20;;
72087;SDS011;59961;50.232;8.616;2023-11-21T06:46:12;3.17;;;1.15;;
72087;SDS011;59961;50.232;8.616;2023-11-21T06:48:43;2.50;;;1.13;;
72087;SDS011;59961;50.232;8.616;2023-11-21T06:51:09;2.78;;;1.17;;
72087;SDS011;59961;50.232;8.616;2023-11-21T06:53:35;2.80;;;0.97;;
72087;SDS011;59961;50.232;8.616;2023-11-21T06:56:00;5.93;;;1.50;;
72087;SDS011;59961;50.232;8.616;2023-11-21T06:58:25;5.38;;;1.40;;
72087;SDS011;59961;50.232;8.616;2023-11-21T07:00:50;3.88;;;1.60;;
72087;SDS011;59961;50.232;8.616;2023-11-21T07:03:17;4.73;;;1.80;;
72087;SDS011;59961;50.232;8.616;2023-11-21T07:05:44;4.80;;;1.65;;
72087;SDS011;59961;50.232;8.616;2023-11-21T07:08:09;3.60;;;1.43;;
72087;SDS011;59961;50.232;8.616;2023-11-21T07:10:34;4.87;;;2.07;;
72087;SDS011;59961;50.232;8.616;2023-11-21T07:13:00;4.32;;;2.03;;
72087;SDS011;59961;50.232;8.616;2023-11-21T07:15:26;5.00;;;1.90;;
72087;SDS011;59961;50.232;8.616;2023-11-21T07:17:51;6.50;;;1.80;;
72087;SDS011;59961;50.232;8.616;2023-11-21T07:20:16;6.20;;;1.83;;
72087;SDS011;59961;50.232;8.616;2023-11-21T07:22:42;4.95;;;1.83;;
72087;SDS011;59961;50.232;8.616;2023-11-21T07:25:07;7.67;;;2.37;;
72087;SDS011;59961;50.232;8.616;2023-11-21T07:27:34;4.72;;;2.00;;
72087;SDS011;59961;50.232;8.616;2023-11-21T07:30:02;5.87;;;2.23;;
72087;SDS011;59961;50.232;8.616;2023-11-21T07:32:30;8.63;;;2.33;;
72087;SDS011;59961;50.232;8.616;2023-11-21T07:34:55;6.28;;;2.33;;
72087;SDS011;59961;50.232;8.616;2023-11-21T07:37:22;5.60;;;2.38;;
72087;SDS011;59961;50.232;8.616;2023-11-21T07:39:47;5.27;;;2.00;;
72087;SDS011;59961;50.232;8.616;2023-11-21T07:42:12;6.00;;;2.50;;
72087;SDS011;59961;50.232;8.616;2023-11-21T07:44:37;7.10;;;2.13;;
72087;SDS011;59961;50.232;8.616;2023-11-21T07:47:03;8.17;;;2.70;;
72087;SDS011;59961;50.232;8.616;2023-11-21T07:49:29;6.07;;;2.10;;
72087;SDS011;59961;50.232;8.616;2023-11-21T07:51:54;12.23;;;2.53;;
72087;SDS011;59961;50.232;8.616;2023-11-21T07:57:23;6.28;;;2.30;;
72087;SDS011;59961;50.232;8.616;2023-11-21T07:59:48;5.47;;;2.13;;
72087;SDS011;59961;50.232;8.616;2023-11-21T08:02:13;7.13;;;2.55;;
72087;SDS011;59961;50.232;8.616;2023-11-21T08:04:39;6.75;;;2.63;;
72087;SDS011;59961;50.232;8.616;2023-11-21T08:07:04;7.55;;;2.88;;
72087;SDS011;59961;50.232;8.616;2023-11-21T08:09:29;7.73;;;2.67;;
72087;SDS011;59961;50.232;8.616;2023-11-21T08:11:55;6.73;;;3.07;;
72087;SDS011;59961;50.232;8.616;2023-11-21T08:14:21;9.15;;;3.58;;
72087;SDS011;59961;50.232;8.616;2023-11-21T08:16:46;9.77;;;3.63;;
72087;SDS011;59961;50.232;8.616;2023-11-21T08:19:12;9.03;;;3.47;;
72087;SDS011;59961;50.232;8.616;2023-11-21T08:21:37;9.20;;;3.10;;
72087;SDS011;59961;50.232;8.616;2023-11-21T08:24:04;7.65;;;2.80;;
72087;SDS011;59961;50.232;8.616;2023-11-21T08:26:29;7.93;;;2.73;;
72087;SDS011;59961;50.232;8.616;2023-11-21T08:28:54;7.20;;;2.63;;
72087;SDS011;59961;50.232;8.616;2023-11-21T08:31:25;14.20;;;3.45;;
72087;SDS011;59961;50.232;8.616;2023-11-21T08:33:50;8.70;;;3.05;;
72087;SDS011;59961;50.232;8.616;2023-11-21T08:36:15;7.97;;;2.67;;
72087;SDS011;59961;50.232;8.616;2023-11-21T08:38:40;10.67;;;3.27;;
72087;SDS011;59961;50.232;8.616;2023-11-21T08:41:06;8.07;;;3.33;;
72087;SDS011;59961;50.232;8.616;2023-11-21T08:43:35;7.05;;;2.80;;
72087;SDS011;59961;50.232;8.616;2023-11-21T08:46:00;13.10;;;3.23;;
72087;SDS011;59961;50.232;8.616;2023-11-21T08:48:25;6.23;;;2.80;;
72087;SDS011;59961;50.232;8.616;2023-11-21T08:50:53;6.07;;;2.47;;
72087;SDS011;59961;50.232;8.616;2023-11-21T08:53:19;8.07;;;2.95;;
72087;SDS011;59961;50.232;8.616;2023-11-21T08:55:44;7.45;;;2.90;;
72087;SDS011;59961;50.232;8.616;2023-11-21T08:58:09;5.27;;;2.43;;
72087;SDS011;59961;50.232;8.616;2023-11-21T09:00:34;10.10;;;2.80;;
72087;SDS011;59961;50.232;8.616;2023-11-21T09:03:00;6.77;;;2.60;;
72087;SDS011;59961;50.232;8.616;2023-11-21T09:05:26;10.90;;;2.72;;
72087;SDS011;59961;50.232;8.616;2023-11-21T09:07:52;6.80;;;2.17;;
72087;SDS011;59961;50.232;8.616;2023-11-21T09:10:17;6.77;;;2.77;;
72087;SDS011;59961;50.232;8.616;2023-11-21T09:12:42;6.73;;;2.47;;
72087;SDS011;59961;50.232;8.616;2023-11-21T09:15:08;7.37;;;2.23;;
72087;SDS011;59961;50.232;8.616;2023-11-21T09:17:34;6.78;;;2.28;;
72087;SDS011;59961;50.232;8.616;2023-11-21T09:20:00;6.10;;;2.30;;
72087;SDS011;59961;50.232;8.616;2023-11-21T09:22:25;5.03;;;1.70;;
72087;SDS011;59961;50.232;8.616;2023-11-21T09:24:53;6.37;;;2.50;;
72087;SDS011;59961;50.232;8.616;2023-11-21T09:27:18;5.07;;;2.13;;
72087;SDS011;59961;50.232;8.616;2023-11-21T09:29:44;8.27;;;2.17;;
72087;SDS011;59961;50.232;8.616;2023-11-21T09:32:09;7.27;;;2.20;;
72087;SDS011;59961;50.232;8.616;2023-11-21T09:34:37;5.05;;;2.08;;
72087;SDS011;59961;50.232;8.616;2023-11-21T09:37:03;6.23;;;2.40;;
72087;SDS011;59961;50.232;8.616;2023-11-21T09:39:30;7.63;;;2.33;;
72087;SDS011;59961;50.232;8.616;2023-11-21T09:41:57;7.20;;;1.88;;
72087;SDS011;59961;50.232;8.616;2023-11-21T09:47:10;6.27;;;2.17;;
72087;SDS011;59961;50.232;8.616;2023-11-21T09:49:35;5.80;;;2.47;;
72087;SDS011;59961;50.232;8.616;2023-11-21T09:52:02;4.97;;;1.60;;
72087;SDS011;59961;50.232;8.616;2023-11-21T09:54:30;7.32;;;2.20;;
72087;SDS011;59961;50.232;8.616;2023-11-21T09:56:57;5.70;;;1.90;;
72087;SDS011;59961;50.232;8.616;2023-11-21T09:59:23;5.78;;;1.92;;
72087;SDS011;59961;50.232;8.616;2023-11-21T10:01:48;4.22;;;1.85;;
72087;SDS011;59961;50.232;8.616;2023-11-21T10:04:15;8.18;;;2.33;;
72087;SDS011;59961;50.232;8.616;2023-11-21T10:06:42;6.37;;;2.23;;
72087;SDS011;59961;50.232;8.616;2023-11-21T10:09:10;5.75;;;2.03;;
72087;SDS011;59961;50.232;8.616;2023-11-21T10:11:40;5.57;;;2.00;;
72087;SDS011;59961;50.232;8.616;2023-11-21T10:14:06;8.75;;;1.98;;
72087;SDS011;59961;50.232;8.616;2023-11-21T10:16:32;8.55;;;2.28;;
72087;SDS011;59961;50.232;8.616;2023-11-21T10:18:58;6.73;;;2.70;;
72087;SDS011;59961;50.232;8.616;2023-11-21T10:21:23;4.97;;;2.27;;
72087;SDS011;59961;50.232;8.616;2023-11-21T10:23:48;6.43;;;2.13;;
72087;SDS011;59961;50.232;8.616;2023-11-21T10:26:13;5.80;;;1.80;;
72087;SDS011;59961;50.232;8.616;2023-11-21T10:28:41;5.00;;;2.33;;
72087;SDS011;59961;50.232;8.616;2023-11-21T10:31:06;5.73;;;2.30;;
72087;SDS011;59961;50.232;8.616;2023-11-21T10:33:32;4.27;;;1.87;;
72087;SDS011;59961;50.232;8.616;2023-11-21T10:35:57;6.30;;;2.70;;
72087;SDS011;59961;50.232;8.616;2023-11-21T10:38:22;6.10;;;2.57;;
72087;SDS011;59961;50.232;8.616;2023-11-21T10:40:49;6.68;;;2.45;;
72087;SDS011;59961;50.232;8.616;2023-11-21T10:43:14;8.00;;;2.17;;
72087;SDS011;59961;50.232;8.616;2023-11-21T10:45:40;6.03;;;2.10;;
72087;SDS011;59961;50.232;8.616;2023-11-21T10:48:08;5.80;;;2.50;;
72087;SDS011;59961;50.232;8.616;2023-11-21T10:50:35;6.72;;;2.40;;
72087;SDS011;59961;50.232;8.616;2023-11-21T10:53:01;4.73;;;1.90;;
72087;SDS011;59961;50.232;8.616;2023-11-21T10:55:27;6.47;;;2.50;;
72087;SDS011;59961;50.232;8.616;2023-11-21T10:57:52;6.40;;;2.20;;
72087;SDS011;59961;50.232;8.616;2023-11-21T11:00:18;6.45;;;2.17;;
72087;SDS011;59961;50.232;8.616;2023-11-21T11:02:48;7.50;;;2.20;;
72087;SDS011;59961;50.232;8.616;2023-11-21T11:05:15;7.63;;;2.50;;
72087;SDS011;59961;50.232;8.616;2023-11-21T11:07:41;3.63;;;1.80;;
72087;SDS011;59961;50.232;8.616;2023-11-21T11:10:08;6.72;;;2.88;;
72087;SDS011;59961;50.232;8.616;2023-11-21T11:12:39;5.07;;;1.88;;
72087;SDS011;59961;50.232;8.616;2023-11-21T11:15:04;5.10;;;1.90;;
72087;SDS011;59961;50.232;8.616;2023-11-21T11:17:30;6.67;;;3.00;;
72087;SDS011;59961;50.232;8.616;2023-11-21T11:19:57;4.68;;;1.98;;
72087;SDS011;59961;50.232;8.616;2023-11-21T11:22:37;7.03;;;2.43;;
72087;SDS011;59961;50.232;8.616;2023-11-21T11:25:07;7.10;;;2.45;;
72087;SDS011;59961;50.232;8.616;2023-11-21T11:30:55;5.43;;;2.00;;
72087;SDS011;59961;50.232;8.616;2023-11-21T11:33:33;4.47;;;2.17;;
72087;SDS011;59961;50.232;8.616;2023-11-21T11:38:45;6.95;;;2.28;;
72087;SDS011;59961;50.232;8.616;2023-11-21T11:41:10;7.00;;;2.17;;
72087;SDS011;59961;50.232;8.616;2023-11-21T11:43:35;5.10;;;1.90;;
72087;SDS011;59961;50.232;8.616;2023-11-21T11:46:10;5.90;;;2.70;;
72087;SDS011;59961;50.232;8.616;2023-11-21T11:48:37;6.17;;;2.43;;
72087;SDS011;59961;50.232;8.616;2023-11-21T11:51:09;6.10;;;2.45;;
72087;SDS011;59961;50.232;8.616;2023-11-21T11:53:35;7.07;;;2.05;;
72087;SDS011;59961;50.232;8.616;2023-11-21T11:58:46;6.53;;;1.85;;
72087;SDS011;59961;50.232;8.616;2023-11-21T12:01:11;5.43;;;2.03;;
72087;SDS011;59961;50.232;8.616;2023-11-21T12:03:37;7.05;;;2.00;;
72087;SDS011;59961;50.232;8.616;2023-11-21T12:06:02;6.57;;;2.37;;
72087;SDS011;59961;50.232;8.616;2023-11-21T12:08:28;5.57;;;1.90;;
72087;SDS011;59961;50.232;8.616;2023-11-21T12:10:56;6.77;;;2.23;;
72087;SDS011;59961;50.232;8.616;2023-11-21T12:13:22;7.50;;;2.00;;
72087;SDS011;59961;50.232;8.616;2023-11-21T12:15:48;7.63;;;2.20;;
72087;SDS011;59961;50.232;8.616;2023-11-21T12:18:13;7.50;;;2.03;;
72087;SDS011;59961;50.232;8.616;2023-11-21T12:20:39;4.77;;;1.90;;
72087;SDS011;59961;50.232;8.616;2023-11-21T12:23:05;5.38;;;2.05;;
72087;SDS011;59961;50.232;8.616;2023-11-21T12:25:31;5.18;;;1.92;;
72087;SDS011;59961;50.232;8.616;2023-11-21T12:27:57;4.78;;;2.10;;
72087;SDS011;59961;50.232;8.616;2023-11-21T12:30:23;8.17;;;2.20;;
72087;SDS011;59961;50.232;8.616;2023-11-21T12:32:49;7.15;;;2.15;;
72087;SDS011;59961;50.232;8.616;2023-11-21T12:35:16;4.82;;;2.05;;
72087;SDS011;59961;50.232;8.616;2023-11-21T12:37:44;3.97;;;1.63;;
72087;SDS011;59961;50.232;8.616;2023-11-21T12:40:10;8.05;;;2.15;;
72087;SDS011;59961;50.232;8.616;2023-11-21T12:42:41;5.15;;;2.28;;
72087;SDS011;59961;50.232;8.616;2023-11-21T12:45:09;4.60;;;2.10;;
72087;SDS011;59961;50.232;8.616;2023-11-21T12:47:40;4.80;;;1.83;;
72087;SDS011;59961;50.232;8.616;2023-11-21T12:50:05;5.47;;;2.10;;
72087;SDS011;59961;50.232;8.616;2023-11-21T12:52:31;5.70;;;1.80;;
72087;SDS011;59961;50.232;8.616;2023-11-21T12:54:57;5.90;;;2.05;;
72087;SDS011;59961;50.232;8.616;2023-11-21T12:57:25;7.43;;;1.83;;
72087;SDS011;59961;50.232;8.616;2023-11-21T12:59:52;7.57;;;2.05;;
72087;SDS011;59961;50.232;8.616;2023-11-21T13:02:19;5.15;;;2.15;;
72087;SDS011;59961;50.232;8.616;2023-11-21T13:04:44;6.47;;;2.15;;
72087;SDS011;59961;50.232;8.616;2023-11-21T13:07:16;11.87;;;2.07;;
72087;SDS011;59961;50.232;8.616;2023-11-21T13:09:42;5.88;;;2.08;;
72087;SDS011;59961;50.232;8.616;2023-11-21T13:12:07;11.88;;;2.30;;
72087;SDS011;59961;50.232;8.616;2023-11-21T13:14:35;4.97;;;2.33;;
72087;SDS011;59961;50.232;8.616;2023-11-21T13:17:00;7.53;;;2.40;;
72087;SDS011;59961;50.232;8.616;2023-11-21T13:19:25;11.20;;;2.80;;
72087;SDS011;59961;50.232;8.616;2023-11-21T13:21:52;6.28;;;2.40;;
72087;SDS011;59961;50.232;8.616;2023-11-21T13:24:17;5.90;;;2.30;;
72087;SDS011;59961;50.232;8.616;2023-11-21T13:26:43;7.77;;;2.50;;
72087;SDS011;59961;50.232;8.616;2023-11-21T13:29:10;8.20;;;2.45;;
72087;SDS011;59961;50.232;8.616;2023-11-21T13:31:37;5.97;;;1.98;;
72087;SDS011;59961;50.232;8.616;2023-11-21T13:34:03;5.78;;;2.25;;
72087;SDS011;59961;50.232;8.616;2023-11-21T13:36:33;5.47;;;2.33;;
72087;SDS011;59961;50.232;8.616;2023-11-21T13:39:00;6.28;;;2.00;;
72087;SDS011;59961;50.232;8.616;2023-11-21T13:41:29;5.82;;;2.05;;
72087;SDS011;59961;50.232;8.616;2023-11-21T13:43:55;5.78;;;1.83;;
72087;SDS011;59961;50.232;8.616;2023-11-21T13:46:28;6.57;;;2.10;;
72087;SDS011;59961;50.232;8.616;2023-11-21T13:48:54;7.97;;;2.70;;
72087;SDS011;59961;50.232;8.616;2023-11-21T13:51:21;6.00;;;2.20;;
72087;SDS011;59961;50.232;8.616;2023-11-21T13:53:54;8.10;;;2.72;;
72087;SDS011;59961;50.232;8.616;2023-11-21T13:56:20;5.90;;;2.07;;
72087;SDS011;59961;50.232;8.616;2023-11-21T13:58:49;7.28;;;2.65;;
72087;SDS011;59961;50.232;8.616;2023-11-21T14:01:20;7.40;;;2.22;;
72087;SDS011;59961;50.232;8.616;2023-11-21T14:03:54;8.77;;;2.42;;
72087;SDS011;59961;50.232;8.616;2023-11-21T14:06:26;9.40;;;2.63;;
72087;SDS011;59961;50.232;8.616;2023-11-21T14:08:59;6.00;;;2.43;;
72087;SDS011;59961;50.232;8.616;2023-11-21T14:11:25;5.75;;;2.30;;
72087;SDS011;59961;50.232;8.616;2023-11-21T14:13:50;5.97;;;2.90;;
72087;SDS011;59961;50.232;8.616;2023-11-21T14:16:16;7.40;;;2.50;;
72087;SDS011;59961;50.232;8.616;2023-11-21T14:18:42;9.85;;;2.67;;
72087;SDS011;59961;50.232;8.616;2023-11-21T14:21:18;6.72;;;2.70;;
72087;SDS011;59961;50.232;8.616;2023-11-21T14:23:43;5.90;;;2.73;;
72087;SDS011;59961;50.232;8.616;2023-11-21T14:26:10;7.18;;;2.92;;
72087;SDS011;59961;50.232;8.616;2023-11-21T14:28:38;9.35;;;2.45;;
72087;SDS011;59961;50.232;8.616;2023-11-21T14:31:04;9.83;;;3.23;;
72087;SDS011;59961;50.232;8.616;2023-11-21T14:33:29;10.43;;;2.70;;
72087;SDS011;59961;50.232;8.616;2023-11-21T14:35:54;5.40;;;2.43;;
72087;SDS011;59961;50.232;8.616;2023-11-21T14:38:19;7.10;;;2.90;;
72087;SDS011;59961;50.232;8.616;2023-11-21T14:40:45;7.00;;;3.00;;
72087;SDS011;59961;50.232;8.616;2023-11-21T14:43:12;6.80;;;2.40;;
72087;SDS011;59961;50.232;8.616;2023-11-21T14:45:37;6.35;;;2.20;;
72087;SDS011;59961;50.232;8.616;2023-11-21T14:48:03;6.33;;;2.47;;
72087;SDS011;59961;50.232;8.616;2023-11-21T14:50:31;6.97;;;2.37;;
72087;SDS011;59961;50.232;8.616;2023-11-21T14:53:09;7.82;;;2.45;;
72087;SDS011;59961;50.232;8.616;2023-11-21T14:55:34;5.95;;;2.42;;